Wetterdaten: aktuell Dienstag, 05.05.2026 13:47
Datum Zeit Temp.2m Feuchte 2m Luftdruck Regen Wind Richtung Richtung Sonnenschein ET UV Solar Taupunkt Windchill Windböen Empfang
05.05.2026 13:47 24,9 °C 44 % 1005,1 hPa 0,0 l/m² 4,8 km/h (1 Bft) W-SW 247 ° 60 min 0,483 mm 6,7 UV-I 766 W/m² 11,8 °C 24,9 °C 6,4 km/h (2 Bft) 95,65 %
05.05.2026 12:47 23,7 °C 44 % 1005,8 hPa 0,0 l/m² 4,8 km/h (1 Bft) NW 315 ° 60 min 0,432 mm 7,4 UV-I 346 W/m² 10,7 °C 23,7 °C 6,4 km/h (2 Bft) 95,65 %
05.05.2026 11:47 22,1 °C 56 % 1006,2 hPa 0,0 l/m² 3,2 km/h (1 Bft) N 360 ° 60 min 0,381 mm 6,4 UV-I 715 W/m² 12,9 °C 22,1 °C 8,0 km/h (2 Bft) 95,65 %
05.05.2026 10:47 21,0 °C 60 % 1006,8 hPa 0,0 l/m² 4,8 km/h (1 Bft) NW 315 ° 60 min 0,305 mm 5,9 UV-I 728 W/m² 12,9 °C 21,0 °C 8,0 km/h (2 Bft) 100,00 %
05.05.2026 09:47 18,7 °C 65 % 1006,9 hPa 0,0 l/m² 4,8 km/h (1 Bft) W-NW 292 ° 60 min 0,203 mm 6,2 UV-I 568 W/m² 12,0 °C 18,7 °C 6,4 km/h (2 Bft) 91,30 %
05.05.2026 08:47 16,8 °C 73 % 1007,4 hPa 0,0 l/m² 1,6 km/h (1 Bft) NW 315 ° 60 min 0,102 mm 0,0 UV-I 413 W/m² 11,9 °C 16,8 °C 3,2 km/h (1 Bft) 100,00 %
05.05.2026 07:47 12,9 °C 89 % 1007,6 hPa 0,0 l/m² 0,0 km/h (0 Bft) N 0 ° 34 min 0,000 mm 0,0 UV-I 243 W/m² 11,1 °C 12,9 °C 0,0 km/h (0 Bft) 100,00 %
05.05.2026 06:47 10,3 °C 91 % 1008,8 hPa 0,0 l/m² 0,0 km/h (0 Bft) N 0 ° 0 min 0,000 mm 0,0 UV-I 25 W/m² 8,9 °C 10,3 °C 0,0 km/h (0 Bft) 100,00 %
05.05.2026 05:47 10,9 °C 90 % 1009,0 hPa 0,0 l/m² 0,0 km/h (0 Bft) N 0 ° 0 min 0,000 mm 0,0 UV-I 5 W/m² 9,3 °C 10,9 °C 0,0 km/h (0 Bft) 100,00 %
05.05.2026 04:47 11,8 °C 87 % 1008,0 hPa 0,0 l/m² 0,0 km/h (0 Bft) N 360 ° 0 min 0,025 mm 0,0 UV-I 0 W/m² 9,7 °C 11,8 °C 1,6 km/h (1 Bft) 100,00 %
05.05.2026 03:47 12,7 °C 84 % 1008,2 hPa 0,0 l/m² 0,0 km/h (0 Bft) N 0 ° 0 min 0,025 mm 0,0 UV-I 0 W/m² 10,1 °C 12,7 °C 0,0 km/h (0 Bft) 100,00 %
05.05.2026 02:47 14,6 °C 74 % 1008,2 hPa 0,0 l/m² 0,0 km/h (0 Bft) N-NO 22 ° 0 min 0,025 mm 0,0 UV-I 0 W/m² 10,0 °C 14,6 °C 3,2 km/h (1 Bft) 100,00 %
05.05.2026 01:47 14,8 °C 72 % 1008,7 hPa 0,0 l/m² 0,0 km/h (0 Bft) N 0 ° 0 min 0,025 mm 0,0 UV-I 0 W/m² 9,8 °C 14,8 °C 0,0 km/h (0 Bft) 100,00 %
05.05.2026 00:47 14,8 °C 74 % 1009,2 hPa 0,0 l/m² 0,0 km/h (0 Bft) O-NO 67 ° 0 min 0,025 mm 0,0 UV-I 0 W/m² 10,2 °C 14,8 °C 1,6 km/h (1 Bft) 100,00 %
04.05.2026 23:47 16,3 °C 67 % 1009,1 hPa 0,0 l/m² 0,0 km/h (0 Bft) N 0 ° 0 min 0,076 mm 0,0 UV-I 0 W/m² 10,2 °C 16,3 °C 0,0 km/h (0 Bft) 95,65 %
04.05.2026 22:47 15,7 °C 73 % 1009,3 hPa 2,4 l/m² 11,3 km/h (2 Bft) N 360 ° 0 min 0,076 mm 0,0 UV-I 0 W/m² 10,9 °C 13,3 °C 25,7 km/h (4 Bft) 95,65 %
04.05.2026 21:47 20,0 °C 54 % 1010,5 hPa 0,0 l/m² 8,0 km/h (2 Bft) W-NW 292 ° 0 min 0,076 mm 0,0 UV-I 0 W/m² 10,4 °C 19,4 °C 16,1 km/h (3 Bft) 100,00 %
04.05.2026 20:47 20,8 °C 48 % 1009,0 hPa 0,0 l/m² 6,4 km/h (2 Bft) N 360 ° 0 min 0,102 mm 0,0 UV-I 0 W/m² 9,4 °C 20,8 °C 9,7 km/h (2 Bft) 100,00 %
04.05.2026 19:47 22,9 °C 37 % 1008,9 hPa 0,0 l/m² 0,0 km/h (0 Bft) N 0 ° 34 min 0,000 mm 0,0 UV-I 21 W/m² 7,4 °C 22,9 °C 0,0 km/h (0 Bft) 95,65 %
04.05.2026 18:47 25,7 °C 35 % 1009,7 hPa 0,0 l/m² 0,0 km/h (0 Bft) N-NO 22 ° 60 min 0,000 mm 0,0 UV-I 302 W/m² 9,1 °C 25,7 °C 1,6 km/h (1 Bft) 95,65 %
04.05.2026 17:47 25,7 °C 35 % 1010,1 hPa 0,0 l/m² 0,0 km/h (0 Bft) N 360 ° 60 min 0,330 mm 0,0 UV-I 302 W/m² 9,1 °C 25,7 °C 1,6 km/h (1 Bft) 100,00 %
04.05.2026 16:47 26,3 °C 34 % 1009,8 hPa 0,0 l/m² 0,0 km/h (0 Bft) NW 315 ° 60 min 0,457 mm 0,0 UV-I 381 W/m² 9,2 °C 26,3 °C 1,6 km/h (1 Bft) 100,00 %
04.05.2026 15:47 26,6 °C 34 % 1010,3 hPa 0,0 l/m² 1,6 km/h (1 Bft) NW 315 ° 60 min 0,508 mm 7,8 UV-I 610 W/m² 9,4 °C 26,6 °C 6,4 km/h (2 Bft) 100,00 %
04.05.2026 14:47 26,0 °C 33 % 1011,2 hPa 0,0 l/m² 1,6 km/h (1 Bft) O-NO 67 ° 47 min 0,483 mm 6,2 UV-I 796 W/m² 8,5 °C 26,0 °C 4,8 km/h (1 Bft) 95,65 %
04.05.2026 14:00 26,2 °C 38 % 1011,6 hPa 0,0 l/m² 1,6 km/h (1 Bft) SO 135 ° 0 min 0,000 mm 7,0 UV-I 728 W/m² 10,7 °C 26,2 °C 3,2 km/h (1 Bft) 100,00 %
_ Min-Zeit 07:05 16:19 13:47 - 11:31 - - - - - - 19:06 22:32 11:20 00:59
Minimum _ 10,2 °C 33 % 1005,1 hPa - 0,0 km/h (0 Bft) - - - - - - 7,2 °C 7,1 °C 0,0 km/h (0 Bft) 73,91 %
_ Max-Zeit 15:33 07:21 14:29 22:41 22:32 - - 14:00 15:01 16:21 12:40 11:35 15:33 22:35 13:46
Maximum _ 26,8 °C 93 % 1011,6 hPa 0,2 l/m² 37,0 km/h
N (5 Bft)
- - 5 min 0,508 mm 8,7 UV-I 925 W/m² 14,4 °C 26,8 °C 48,3 km/h
N (6 Bft)
100,00 %
Durchschnitt _ 19,5 °C 60 % 1008,9 hPa #2,4 l/m² 2,4 km/h (1 Bft) N - #6:34 h #2,031 mm 6,2 UV-I 464 W/m² 10,4 °C 19,3 °C 4,4 km/h (1 Bft) 98,18 %